sensor_id;sensor_type;location;lat;lon;timestamp;pressure;altitude;pressure_sealevel;temperature;humidity
22241;BME280;11289;52.524;13.694;2024-01-07T00:00:22;101186.38;;;-2.14;75.11
22241;BME280;11289;52.524;13.694;2024-01-07T00:02:48;101200.38;;;-2.10;75.67
22241;BME280;11289;52.524;13.694;2024-01-07T00:05:14;101209.72;;;-2.06;75.87
22241;BME280;11289;52.524;13.694;2024-01-07T00:07:40;101212.91;;;-2.09;75.48
22241;BME280;11289;52.524;13.694;2024-01-07T00:10:06;101188.88;;;-2.12;75.72
22241;BME280;11289;52.524;13.694;2024-01-07T00:12:32;101205.09;;;-2.05;75.96
22241;BME280;11289;52.524;13.694;2024-01-07T00:14:58;101205.34;;;-2.07;76.67
22241;BME280;11289;52.524;13.694;2024-01-07T00:17:23;101208.41;;;-2.03;76.27
22241;BME280;11289;52.524;13.694;2024-01-07T00:19:49;101217.66;;;-2.04;76.19
22241;BME280;11289;52.524;13.694;2024-01-07T00:22:15;101209.34;;;-2.10;75.85
22241;BME280;11289;52.524;13.694;2024-01-07T00:24:41;101217.63;;;-2.16;75.59
22241;BME280;11289;52.524;13.694;2024-01-07T00:27:07;101223.66;;;-2.14;76.11
22241;BME280;11289;52.524;13.694;2024-01-07T00:29:34;101212.31;;;-2.11;76.62
22241;BME280;11289;52.524;13.694;2024-01-07T00:32:01;101218.06;;;-2.19;75.09
22241;BME280;11289;52.524;13.694;2024-01-07T00:34:27;101222.69;;;-2.20;75.82
22241;BME280;11289;52.524;13.694;2024-01-07T00:36:53;101223.06;;;-2.16;75.78
22241;BME280;11289;52.524;13.694;2024-01-07T00:39:20;101235.00;;;-2.17;75.59
22241;BME280;11289;52.524;13.694;2024-01-07T00:41:46;101235.47;;;-2.20;75.10
22241;BME280;11289;52.524;13.694;2024-01-07T00:44:12;101230.09;;;-2.27;74.20
22241;BME280;11289;52.524;13.694;2024-01-07T00:46:38;101242.91;;;-2.28;73.88
22241;BME280;11289;52.524;13.694;2024-01-07T00:49:04;101248.34;;;-2.28;74.53
22241;BME280;11289;52.524;13.694;2024-01-07T00:51:30;101247.28;;;-2.26;75.00
22241;BME280;11289;52.524;13.694;2024-01-07T00:53:55;101253.50;;;-2.38;73.62
22241;BME280;11289;52.524;13.694;2024-01-07T00:56:25;101258.94;;;-2.38;73.80
22241;BME280;11289;52.524;13.694;2024-01-07T00:58:51;101247.53;;;-2.47;74.59
22241;BME280;11289;52.524;13.694;2024-01-07T01:01:17;101259.16;;;-2.39;74.02
22241;BME280;11289;52.524;13.694;2024-01-07T01:03:43;101261.72;;;-2.45;73.06
22241;BME280;11289;52.524;13.694;2024-01-07T01:06:09;101270.41;;;-2.54;72.17
22241;BME280;11289;52.524;13.694;2024-01-07T01:08:35;101271.50;;;-2.55;73.25
22241;BME280;11289;52.524;13.694;2024-01-07T01:11:01;101283.19;;;-2.55;72.85
22241;BME280;11289;52.524;13.694;2024-01-07T01:13:26;101274.66;;;-2.58;72.88
22241;BME280;11289;52.524;13.694;2024-01-07T01:15:52;101284.91;;;-2.60;72.34
22241;BME280;11289;52.524;13.694;2024-01-07T01:18:18;101277.69;;;-2.67;72.54
22241;BME280;11289;52.524;13.694;2024-01-07T01:20:44;101283.34;;;-2.68;72.18
22241;BME280;11289;52.524;13.694;2024-01-07T01:23:10;101281.13;;;-2.78;71.67
22241;BME280;11289;52.524;13.694;2024-01-07T01:25:36;101296.19;;;-2.75;72.38
22241;BME280;11289;52.524;13.694;2024-01-07T01:28:02;101287.41;;;-2.77;71.73
22241;BME280;11289;52.524;13.694;2024-01-07T01:30:28;101292.84;;;-2.77;71.96
22241;BME280;11289;52.524;13.694;2024-01-07T01:32:57;101302.88;;;-2.78;72.55
22241;BME280;11289;52.524;13.694;2024-01-07T01:35:23;101293.69;;;-2.77;71.70
22241;BME280;11289;52.524;13.694;2024-01-07T01:37:49;101305.59;;;-2.78;72.07
22241;BME280;11289;52.524;13.694;2024-01-07T01:40:16;101303.94;;;-2.79;71.46
22241;BME280;11289;52.524;13.694;2024-01-07T01:42:43;101282.50;;;-2.87;72.93
22241;BME280;11289;52.524;13.694;2024-01-07T01:45:09;101308.59;;;-2.86;71.21
22241;BME280;11289;52.524;13.694;2024-01-07T01:47:35;101324.50;;;-2.83;72.36
22241;BME280;11289;52.524;13.694;2024-01-07T01:50:01;101319.47;;;-2.86;71.49
22241;BME280;11289;52.524;13.694;2024-01-07T01:52:27;101316.00;;;-2.93;71.21
22241;BME280;11289;52.524;13.694;2024-01-07T01:54:54;101310.78;;;-2.95;71.54
22241;BME280;11289;52.524;13.694;2024-01-07T01:57:21;101320.16;;;-2.91;71.78
22241;BME280;11289;52.524;13.694;2024-01-07T01:59:48;101332.16;;;-2.99;71.23
22241;BME280;11289;52.524;13.694;2024-01-07T02:02:14;101338.19;;;-2.97;71.49
22241;BME280;11289;52.524;13.694;2024-01-07T02:04:40;101341.13;;;-2.98;70.56
22241;BME280;11289;52.524;13.694;2024-01-07T02:07:07;101332.59;;;-3.02;71.13
22241;BME280;11289;52.524;13.694;2024-01-07T02:09:33;101332.38;;;-3.00;71.08
22241;BME280;11289;52.524;13.694;2024-01-07T02:12:04;101337.84;;;-3.07;70.02
22241;BME280;11289;52.524;13.694;2024-01-07T02:14:31;101342.91;;;-3.10;71.00
22241;BME280;11289;52.524;13.694;2024-01-07T02:16:57;101341.66;;;-3.08;71.39
22241;BME280;11289;52.524;13.694;2024-01-07T02:19:23;101339.41;;;-3.18;70.50
22241;BME280;11289;52.524;13.694;2024-01-07T02:21:52;101336.94;;;-3.19;70.33
22241;BME280;11289;52.524;13.694;2024-01-07T02:24:18;101342.97;;;-3.17;70.90
22241;BME280;11289;52.524;13.694;2024-01-07T02:26:44;101344.06;;;-3.25;70.80
22241;BME280;11289;52.524;13.694;2024-01-07T02:29:10;101344.34;;;-3.33;70.04
22241;BME280;11289;52.524;13.694;2024-01-07T02:31:36;101338.97;;;-3.40;70.52
22241;BME280;11289;52.524;13.694;2024-01-07T02:34:02;101334.72;;;-3.36;71.09
22241;BME280;11289;52.524;13.694;2024-01-07T02:36:28;101339.88;;;-3.53;70.25
22241;BME280;11289;52.524;13.694;2024-01-07T02:38:54;101359.47;;;-3.44;71.33
22241;BME280;11289;52.524;13.694;2024-01-07T02:41:20;101358.47;;;-3.50;70.41
22241;BME280;11289;52.524;13.694;2024-01-07T02:43:46;101353.06;;;-3.56;70.57
22241;BME280;11289;52.524;13.694;2024-01-07T02:46:14;101356.41;;;-3.54;70.96
22241;BME280;11289;52.524;13.694;2024-01-07T02:48:39;101347.03;;;-3.58;71.49
22241;BME280;11289;52.524;13.694;2024-01-07T02:51:07;101359.59;;;-3.64;70.91
22241;BME280;11289;52.524;13.694;2024-01-07T02:53:34;101371.03;;;-3.62;70.96
22241;BME280;11289;52.524;13.694;2024-01-07T02:56:00;101358.75;;;-3.64;71.70
22241;BME280;11289;52.524;13.694;2024-01-07T02:58:26;101360.63;;;-3.65;71.63
22241;BME280;11289;52.524;13.694;2024-01-07T03:00:52;101359.81;;;-3.65;71.82
22241;BME280;11289;52.524;13.694;2024-01-07T03:03:17;101361.06;;;-3.68;72.02
22241;BME280;11289;52.524;13.694;2024-01-07T03:05:43;101373.41;;;-3.72;71.72
22241;BME280;11289;52.524;13.694;2024-01-07T03:08:09;101368.03;;;-3.79;72.02
22241;BME280;11289;52.524;13.694;2024-01-07T03:10:35;101368.44;;;-3.82;71.96
22241;BME280;11289;52.524;13.694;2024-01-07T03:13:01;101371.59;;;-3.85;71.45
22241;BME280;11289;52.524;13.694;2024-01-07T03:15:28;101371.78;;;-3.80;72.27
22241;BME280;11289;52.524;13.694;2024-01-07T03:17:54;101366.34;;;-3.80;72.60
22241;BME280;11289;52.524;13.694;2024-01-07T03:20:20;101370.31;;;-3.82;72.01
22241;BME280;11289;52.524;13.694;2024-01-07T03:22:46;101371.38;;;-3.83;72.07
22241;BME280;11289;52.524;13.694;2024-01-07T03:25:12;101358.44;;;-3.88;72.24
22241;BME280;11289;52.524;13.694;2024-01-07T03:27:38;101372.66;;;-3.86;71.73
22241;BME280;11289;52.524;13.694;2024-01-07T03:30:05;101386.03;;;-3.91;71.76
22241;BME280;11289;52.524;13.694;2024-01-07T03:32:31;101373.94;;;-3.95;71.56
22241;BME280;11289;52.524;13.694;2024-01-07T03:34:57;101386.25;;;-3.93;72.05
22241;BME280;11289;52.524;13.694;2024-01-07T03:37:23;101378.91;;;-3.92;71.89
22241;BME280;11289;52.524;13.694;2024-01-07T03:39:49;101388.38;;;-4.02;71.76
22241;BME280;11289;52.524;13.694;2024-01-07T03:42:14;101391.28;;;-4.03;71.75
22241;BME280;11289;52.524;13.694;2024-01-07T03:44:40;101406.53;;;-4.02;72.33
22241;BME280;11289;52.524;13.694;2024-01-07T03:47:06;101405.25;;;-3.99;72.44
22241;BME280;11289;52.524;13.694;2024-01-07T03:49:32;101395.47;;;-4.00;72.07
22241;BME280;11289;52.524;13.694;2024-01-07T03:51:58;101403.19;;;-4.04;71.91
22241;BME280;11289;52.524;13.694;2024-01-07T03:54:24;101409.47;;;-4.04;71.59
22241;BME280;11289;52.524;13.694;2024-01-07T03:56:50;101415.09;;;-4.05;71.49
22241;BME280;11289;52.524;13.694;2024-01-07T03:59:16;101419.06;;;-4.08;71.22
22241;BME280;11289;52.524;13.694;2024-01-07T04:01:42;101412.41;;;-4.12;71.03
22241;BME280;11289;52.524;13.694;2024-01-07T04:04:08;101420.75;;;-4.13;70.79
22241;BME280;11289;52.524;13.694;2024-01-07T04:06:34;101422.59;;;-4.07;71.92
22241;BME280;11289;52.524;13.694;2024-01-07T04:09:00;101421.38;;;-4.11;70.66
22241;BME280;11289;52.524;13.694;2024-01-07T04:11:25;101434.50;;;-4.08;71.08
22241;BME280;11289;52.524;13.694;2024-01-07T04:13:51;101439.09;;;-4.09;71.19
22241;BME280;11289;52.524;13.694;2024-01-07T04:16:21;101442.84;;;-4.10;71.48
22241;BME280;11289;52.524;13.694;2024-01-07T04:18:47;101444.97;;;-4.12;70.54
22241;BME280;11289;52.524;13.694;2024-01-07T04:21:13;101439.53;;;-4.12;71.31
22241;BME280;11289;52.524;13.694;2024-01-07T04:23:39;101450.38;;;-4.12;71.05
22241;BME280;11289;52.524;13.694;2024-01-07T04:26:09;101452.88;;;-4.10;70.89
22241;BME280;11289;52.524;13.694;2024-01-07T04:28:35;101439.97;;;-4.15;71.65
22241;BME280;11289;52.524;13.694;2024-01-07T04:31:01;101455.81;;;-4.12;71.18
22241;BME280;11289;52.524;13.694;2024-01-07T04:33:27;101457.88;;;-4.14;71.03
22241;BME280;11289;52.524;13.694;2024-01-07T04:35:53;101454.13;;;-4.13;71.41
22241;BME280;11289;52.524;13.694;2024-01-07T04:38:24;101459.56;;;-4.13;71.00
22241;BME280;11289;52.524;13.694;2024-01-07T04:40:51;101463.31;;;-4.14;71.08
22241;BME280;11289;52.524;13.694;2024-01-07T04:43:18;101454.56;;;-4.16;71.23
22241;BME280;11289;52.524;13.694;2024-01-07T04:45:44;101465.41;;;-4.16;71.07
22241;BME280;11289;52.524;13.694;2024-01-07T04:48:10;101457.50;;;-4.17;71.31
22241;BME280;11289;52.524;13.694;2024-01-07T04:50:36;101463.13;;;-4.19;71.53
22241;BME280;11289;52.524;13.694;2024-01-07T04:53:02;101462.91;;;-4.17;71.72
22241;BME280;11289;52.524;13.694;2024-01-07T04:55:29;101472.09;;;-4.18;71.75
22241;BME280;11289;52.524;13.694;2024-01-07T04:57:55;101471.66;;;-4.15;71.99
22241;BME280;11289;52.524;13.694;2024-01-07T05:00:21;101466.66;;;-4.18;71.25
22241;BME280;11289;52.524;13.694;2024-01-07T05:02:48;101468.75;;;-4.21;71.74
22241;BME280;11289;52.524;13.694;2024-01-07T05:05:14;101478.38;;;-4.18;72.08
22241;BME280;11289;52.524;13.694;2024-01-07T05:07:40;101475.84;;;-4.13;72.53
22241;BME280;11289;52.524;13.694;2024-01-07T05:10:06;101469.59;;;-4.13;71.88
22241;BME280;11289;52.524;13.694;2024-01-07T05:12:32;101477.50;;;-4.18;72.03
22241;BME280;11289;52.524;13.694;2024-01-07T05:14:58;101479.81;;;-4.22;71.75
22241;BME280;11289;52.524;13.694;2024-01-07T05:17:24;101474.81;;;-4.25;71.69
22241;BME280;11289;52.524;13.694;2024-01-07T05:19:50;101475.03;;;-4.27;72.60
22241;BME280;11289;52.524;13.694;2024-01-07T05:22:16;101478.78;;;-4.28;72.52
22241;BME280;11289;52.524;13.694;2024-01-07T05:24:42;101489.84;;;-4.29;72.46
22241;BME280;11289;52.524;13.694;2024-01-07T05:27:08;101487.56;;;-4.32;72.76
22241;BME280;11289;52.524;13.694;2024-01-07T05:29:34;101489.63;;;-4.34;72.91
22241;BME280;11289;52.524;13.694;2024-01-07T05:32:01;101486.72;;;-4.33;73.08
22241;BME280;11289;52.524;13.694;2024-01-07T05:34:27;101491.72;;;-4.37;72.52
22241;BME280;11289;52.524;13.694;2024-01-07T05:36:53;101494.84;;;-4.33;72.94
22241;BME280;11289;52.524;13.694;2024-01-07T05:39:19;101493.00;;;-4.32;73.21
22241;BME280;11289;52.524;13.694;2024-01-07T05:41:45;101498.19;;;-4.31;73.13
22241;BME280;11289;52.524;13.694;2024-01-07T05:44:12;101502.38;;;-4.28;73.14
22241;BME280;11289;52.524;13.694;2024-01-07T05:46:38;101510.09;;;-4.25;72.67
22241;BME280;11289;52.524;13.694;2024-01-07T05:49:08;101508.63;;;-4.28;73.26
22241;BME280;11289;52.524;13.694;2024-01-07T05:51:38;101500.69;;;-4.29;73.03
22241;BME280;11289;52.524;13.694;2024-01-07T05:54:04;101512.56;;;-4.30;72.73
22241;BME280;11289;52.524;13.694;2024-01-07T05:56:30;101512.16;;;-4.27;73.33
22241;BME280;11289;52.524;13.694;2024-01-07T05:58:56;101532.19;;;-4.22;73.43
22241;BME280;11289;52.524;13.694;2024-01-07T06:01:22;101522.81;;;-4.19;73.70
22241;BME280;11289;52.524;13.694;2024-01-07T06:03:48;101537.81;;;-4.16;72.94
22241;BME280;11289;52.524;13.694;2024-01-07T06:06:14;101537.63;;;-4.15;73.20
22241;BME280;11289;52.524;13.694;2024-01-07T06:08:41;101535.13;;;-4.16;72.75
22241;BME280;11289;52.524;13.694;2024-01-07T06:11:08;101535.94;;;-4.16;73.29
22241;BME280;11289;52.524;13.694;2024-01-07T06:13:34;101538.66;;;-4.16;72.85
22241;BME280;11289;52.524;13.694;2024-01-07T06:16:00;101541.38;;;-4.16;73.25
22241;BME280;11289;52.524;13.694;2024-01-07T06:18:26;101542.63;;;-4.12;73.88
22241;BME280;11289;52.524;13.694;2024-01-07T06:20:51;101559.09;;;-4.07;73.38
22241;BME280;11289;52.524;13.694;2024-01-07T06:23:17;101553.25;;;-4.10;72.74
22241;BME280;11289;52.524;13.694;2024-01-07T06:25:43;101554.06;;;-4.10;72.92
22241;BME280;11289;52.524;13.694;2024-01-07T06:28:09;101551.16;;;-4.08;73.27
22241;BME280;11289;52.524;13.694;2024-01-07T06:30:36;101552.00;;;-4.08;72.94
22241;BME280;11289;52.524;13.694;2024-01-07T06:33:02;101552.63;;;-4.06;72.92
22241;BME280;11289;52.524;13.694;2024-01-07T06:35:28;101558.91;;;-4.05;73.24
22241;BME280;11289;52.524;13.694;2024-01-07T06:37:54;101549.91;;;-4.06;73.45
22241;BME280;11289;52.524;13.694;2024-01-07T06:40:20;101564.31;;;-3.98;73.68
22241;BME280;11289;52.524;13.694;2024-01-07T06:42:46;101574.72;;;-3.95;73.67
22241;BME280;11289;52.524;13.694;2024-01-07T06:45:13;101573.47;;;-3.93;73.53
22241;BME280;11289;52.524;13.694;2024-01-07T06:47:40;101563.44;;;-3.92;73.73
22241;BME280;11289;52.524;13.694;2024-01-07T06:50:06;101553.88;;;-3.95;73.44
22241;BME280;11289;52.524;13.694;2024-01-07T06:52:33;101559.28;;;-3.88;73.78
22241;BME280;11289;52.524;13.694;2024-01-07T06:54:59;101565.94;;;-3.84;74.03
22241;BME280;11289;52.524;13.694;2024-01-07T06:57:25;101560.94;;;-3.87;73.52
22241;BME280;11289;52.524;13.694;2024-01-07T06:59:50;101575.97;;;-3.78;73.36
22241;BME280;11289;52.524;13.694;2024-01-07T07:02:16;101566.78;;;-3.77;73.34
22241;BME280;11289;52.524;13.694;2024-01-07T07:04:42;101569.06;;;-3.74;72.67
22241;BME280;11289;52.524;13.694;2024-01-07T07:07:08;101569.06;;;-3.74;72.75
22241;BME280;11289;52.524;13.694;2024-01-07T07:09:34;101577.22;;;-3.74;72.62
22241;BME280;11289;52.524;13.694;2024-01-07T07:12:00;101572.41;;;-3.72;73.07
22241;BME280;11289;52.524;13.694;2024-01-07T07:14:26;101576.34;;;-3.68;72.78
22241;BME280;11289;52.524;13.694;2024-01-07T07:16:52;101568.63;;;-3.71;72.09
22241;BME280;11289;52.524;13.694;2024-01-07T07:19:18;101581.38;;;-3.64;72.72
22241;BME280;11289;52.524;13.694;2024-01-07T07:21:44;101584.06;;;-3.58;72.78
22241;BME280;11289;52.524;13.694;2024-01-07T07:24:10;101583.84;;;-3.56;72.48
22241;BME280;11289;52.524;13.694;2024-01-07T07:26:36;101599.09;;;-3.55;72.39
22241;BME280;11289;52.524;13.694;2024-01-07T07:29:07;101583.84;;;-3.56;72.41
22241;BME280;11289;52.524;13.694;2024-01-07T07:31:35;101597.84;;;-3.53;71.75
22241;BME280;11289;52.524;13.694;2024-01-07T07:34:05;101604.31;;;-3.54;71.82
22241;BME280;11289;52.524;13.694;2024-01-07T07:36:31;101603.50;;;-3.54;72.03
22241;BME280;11289;52.524;13.694;2024-01-07T07:38:57;101604.31;;;-3.54;72.04
22241;BME280;11289;52.524;13.694;2024-01-07T07:41:23;101607.47;;;-3.57;71.68
22241;BME280;11289;52.524;13.694;2024-01-07T07:43:49;101615.56;;;-3.50;72.63
22241;BME280;11289;52.524;13.694;2024-01-07T07:46:15;101611.00;;;-3.50;72.22
22241;BME280;11289;52.524;13.694;2024-01-07T07:48:42;101612.69;;;-3.48;71.87
22241;BME280;11289;52.524;13.694;2024-01-07T07:51:08;101614.31;;;-3.47;72.50
22241;BME280;11289;52.524;13.694;2024-01-07T07:53:34;101616.81;;;-3.46;72.69
22241;BME280;11289;52.524;13.694;2024-01-07T07:56:01;101625.56;;;-3.37;73.21
22241;BME280;11289;52.524;13.694;2024-01-07T07:58:27;101628.50;;;-3.32;73.60
22241;BME280;11289;52.524;13.694;2024-01-07T08:00:53;101620.13;;;-3.30;73.28
22241;BME280;11289;52.524;13.694;2024-01-07T08:03:18;101623.03;;;-3.25;73.05
22241;BME280;11289;52.524;13.694;2024-01-07T08:05:44;101628.47;;;-3.25;72.89
22241;BME280;11289;52.524;13.694;2024-01-07T08:08:10;101633.50;;;-3.22;72.62
22241;BME280;11289;52.524;13.694;2024-01-07T08:10:36;101638.94;;;-3.22;73.04
22241;BME280;11289;52.524;13.694;2024-01-07T08:13:02;101622.63;;;-3.22;73.58
22241;BME280;11289;52.524;13.694;2024-01-07T08:15:28;101633.06;;;-3.19;72.86
22241;BME280;11289;52.524;13.694;2024-01-07T08:17:54;101638.88;;;-3.16;73.11
22241;BME280;11289;52.524;13.694;2024-01-07T08:20:20;101639.94;;;-3.17;73.10
22241;BME280;11289;52.524;13.694;2024-01-07T08:22:46;101639.53;;;-3.13;72.59
22241;BME280;11289;52.524;13.694;2024-01-07T08:25:12;101642.84;;;-3.11;73.53
22241;BME280;11289;52.524;13.694;2024-01-07T08:27:41;101640.56;;;-3.08;73.77
22241;BME280;11289;52.524;13.694;2024-01-07T08:30:07;101627.34;;;-3.04;74.13
22241;BME280;11289;52.524;13.694;2024-01-07T08:32:33;101618.56;;;-3.00;73.61
22241;BME280;11289;52.524;13.694;2024-01-07T08:35:01;101626.06;;;-2.95;73.82
22241;BME280;11289;52.524;13.694;2024-01-07T08:37:27;101639.19;;;-2.85;73.82
22241;BME280;11289;52.524;13.694;2024-01-07T08:39:53;101621.41;;;-2.81;73.45
22241;BME280;11289;52.524;13.694;2024-01-07T08:42:19;101622.00;;;-2.79;73.68
22241;BME280;11289;52.524;13.694;2024-01-07T08:44:45;101636.19;;;-2.70;74.22
22241;BME280;11289;52.524;13.694;2024-01-07T08:47:13;101626.38;;;-2.71;73.44
22241;BME280;11289;52.524;13.694;2024-01-07T08:49:39;101629.25;;;-2.66;72.90
22241;BME280;11289;52.524;13.694;2024-01-07T08:52:05;101643.72;;;-2.66;73.12
22241;BME280;11289;52.524;13.694;2024-01-07T08:54:31;101637.19;;;-2.58;73.58
22241;BME280;11289;52.524;13.694;2024-01-07T08:56:57;101634.00;;;-2.55;73.91
22241;BME280;11289;52.524;13.694;2024-01-07T08:59:23;101641.94;;;-2.47;74.12
22241;BME280;11289;52.524;13.694;2024-01-07T09:01:49;101641.50;;;-2.43;74.04
22241;BME280;11289;52.524;13.694;2024-01-07T09:04:15;101651.09;;;-2.41;73.85
22241;BME280;11289;52.524;13.694;2024-01-07T09:06:44;101631.03;;;-2.47;73.97
22241;BME280;11289;52.524;13.694;2024-01-07T09:09:10;101649.19;;;-2.34;73.87
22241;BME280;11289;52.524;13.694;2024-01-07T09:11:36;101641.00;;;-2.34;73.99
22241;BME280;11289;52.524;13.694;2024-01-07T09:14:02;101644.56;;;-2.33;73.43
22241;BME280;11289;52.524;13.694;2024-01-07T09:16:31;101657.28;;;-2.27;73.08
22241;BME280;11289;52.524;13.694;2024-01-07T09:18:57;101655.22;;;-2.32;73.58
22241;BME280;11289;52.524;13.694;2024-01-07T09:21:23;101654.78;;;-2.29;73.53
22241;BME280;11289;52.524;13.694;2024-01-07T09:23:49;101665.84;;;-2.23;74.28
22241;BME280;11289;52.524;13.694;2024-01-07T09:26:15;101665.84;;;-2.23;73.42
22241;BME280;11289;52.524;13.694;2024-01-07T09:28:41;101670.84;;;-2.20;73.79
22241;BME280;11289;52.524;13.694;2024-01-07T09:31:08;101674.84;;;-2.23;73.57
22241;BME280;11289;52.524;13.694;2024-01-07T09:33:34;101669.41;;;-2.23;73.63
22241;BME280;11289;52.524;13.694;2024-01-07T09:36:00;101669.78;;;-2.19;74.26
22241;BME280;11289;52.524;13.694;2024-01-07T09:38:26;101664.97;;;-2.17;74.39
22241;BME280;11289;52.524;13.694;2024-01-07T09:40:52;101660.13;;;-2.15;74.08
22241;BME280;11289;52.524;13.694;2024-01-07T09:43:21;101656.34;;;-2.14;73.96
22241;BME280;11289;52.524;13.694;2024-01-07T09:45:47;101648.78;;;-2.12;74.91
22241;BME280;11289;52.524;13.694;2024-01-07T09:48:14;101642.25;;;-2.04;74.74
22241;BME280;11289;52.524;13.694;2024-01-07T09:50:40;101641.59;;;-2.00;75.15
22241;BME280;11289;52.524;13.694;2024-01-07T09:53:07;101658.28;;;-1.96;74.97
22241;BME280;11289;52.524;13.694;2024-01-07T09:58:15;101657.09;;;-2.00;74.87
22241;BME280;11289;52.524;13.694;2024-01-07T10:00:40;101660.41;;;-1.98;75.13
22241;BME280;11289;52.524;13.694;2024-01-07T10:03:06;101660.19;;;-1.97;75.32
22241;BME280;11289;52.524;13.694;2024-01-07T10:05:32;101666.09;;;-2.00;74.16
22241;BME280;11289;52.524;13.694;2024-01-07T10:07:59;101664.69;;;-2.09;74.61
22241;BME280;11289;52.524;13.694;2024-01-07T10:10:25;101666.97;;;-2.06;74.97
22241;BME280;11289;52.524;13.694;2024-01-07T10:12:50;101671.19;;;-2.10;74.76
22241;BME280;11289;52.524;13.694;2024-01-07T10:15:18;101675.16;;;-2.06;75.53
22241;BME280;11289;52.524;13.694;2024-01-07T10:17:45;101669.63;;;-1.99;75.41
22241;BME280;11289;52.524;13.694;2024-01-07T10:20:11;101670.28;;;-1.97;75.50
22241;BME280;11289;52.524;13.694;2024-01-07T10:22:38;101660.59;;;-1.93;75.45
22241;BME280;11289;52.524;13.694;2024-01-07T10:25:05;101661.22;;;-1.91;75.92
22241;BME280;11289;52.524;13.694;2024-01-07T10:27:36;101667.88;;;-1.87;75.87
22241;BME280;11289;52.524;13.694;2024-01-07T10:30:05;101652.59;;;-1.88;75.53
22241;BME280;11289;52.524;13.694;2024-01-07T10:32:32;101663.66;;;-1.83;75.76
22241;BME280;11289;52.524;13.694;2024-01-07T10:35:03;101655.94;;;-1.86;75.39
22241;BME280;11289;52.524;13.694;2024-01-07T10:37:30;101662.00;;;-1.84;75.92
22241;BME280;11289;52.524;13.694;2024-01-07T10:39:59;101658.84;;;-1.87;75.14
22241;BME280;11289;52.524;13.694;2024-01-07T10:42:32;101664.53;;;-1.89;75.79
22241;BME280;11289;52.524;13.694;2024-01-07T10:44:59;101660.53;;;-1.86;75.70
22241;BME280;11289;52.524;13.694;2024-01-07T10:47:34;101662.59;;;-1.82;76.45
22241;BME280;11289;52.524;13.694;2024-01-07T10:50:01;101652.91;;;-1.78;76.52
22241;BME280;11289;52.524;13.694;2024-01-07T10:52:28;101665.03;;;-1.73;76.14
22241;BME280;11289;52.524;13.694;2024-01-07T10:55:09;101666.25;;;-1.69;76.16
22241;BME280;11289;52.524;13.694;2024-01-07T10:57:42;101649.69;;;-1.68;75.82
22241;BME280;11289;52.524;13.694;2024-01-07T11:00:09;101657.88;;;-1.68;76.24
22241;BME280;11289;52.524;13.694;2024-01-07T11:02:44;101648.88;;;-1.68;74.97
22241;BME280;11289;52.524;13.694;2024-01-07T11:05:25;101653.69;;;-1.70;75.92
22241;BME280;11289;52.524;13.694;2024-01-07T11:08:07;101648.66;;;-1.67;76.56
22241;BME280;11289;52.524;13.694;2024-01-07T11:10:45;101644.63;;;-1.64;76.33
22241;BME280;11289;52.524;13.694;2024-01-07T11:13:31;101643.34;;;-1.62;76.39
22241;BME280;11289;52.524;13.694;2024-01-07T11:15:58;101645.47;;;-1.64;76.51
22241;BME280;11289;52.524;13.694;2024-01-07T11:18:26;101643.34;;;-1.62;76.18
22241;BME280;11289;52.524;13.694;2024-01-07T11:20:58;101643.97;;;-1.60;76.38
22241;BME280;11289;52.524;13.694;2024-01-07T11:23:34;101645.03;;;-1.61;76.61
22241;BME280;11289;52.524;13.694;2024-01-07T11:26:03;101637.69;;;-1.60;77.09
22241;BME280;11289;52.524;13.694;2024-01-07T11:28:52;101641.41;;;-1.54;76.93
22241;BME280;11289;52.524;13.694;2024-01-07T11:34:08;101641.78;;;-1.51;77.18
22241;BME280;11289;52.524;13.694;2024-01-07T11:36:35;101639.06;;;-1.51;77.01
22241;BME280;11289;52.524;13.694;2024-01-07T11:39:03;101637.75;;;-1.48;76.83
22241;BME280;11289;52.524;13.694;2024-01-07T11:41:33;101636.72;;;-1.47;77.46
22241;BME280;11289;52.524;13.694;2024-01-07T11:44:00;101640.66;;;-1.43;77.45
22241;BME280;11289;52.524;13.694;2024-01-07T11:46:27;101637.72;;;-1.42;77.06
22241;BME280;11289;52.524;13.694;2024-01-07T11:48:54;101635.66;;;-1.46;77.31
22241;BME280;11289;52.524;13.694;2024-01-07T11:51:31;101637.72;;;-1.42;77.80
22241;BME280;11289;52.524;13.694;2024-01-07T11:53:58;101640.78;;;-1.38;77.26
22241;BME280;11289;52.524;13.694;2024-01-07T11:56:25;101629.06;;;-1.38;77.69
22241;BME280;11289;52.524;13.694;2024-01-07T11:58:52;101634.69;;;-1.33;77.43
22241;BME280;11289;52.524;13.694;2024-01-07T12:01:18;101629.91;;;-1.38;77.66
22241;BME280;11289;52.524;13.694;2024-01-07T12:03:45;101635.28;;;-1.31;77.76
22241;BME280;11289;52.524;13.694;2024-01-07T12:06:11;101629.84;;;-1.31;78.00
22241;BME280;11289;52.524;13.694;2024-01-07T12:08:43;101621.66;;;-1.31;78.35
22241;BME280;11289;52.524;13.694;2024-01-07T12:11:13;101627.50;;;-1.28;78.04
22241;BME280;11289;52.524;13.694;2024-01-07T12:13:40;101625.84;;;-1.29;78.44
22241;BME280;11289;52.524;13.694;2024-01-07T12:16:06;101626.88;;;-1.30;78.83
22241;BME280;11289;52.524;13.694;2024-01-07T12:18:33;101630.81;;;-1.26;78.80
22241;BME280;11289;52.524;13.694;2024-01-07T12:20:59;101633.56;;;-1.26;78.82
22241;BME280;11289;52.524;13.694;2024-01-07T12:23:26;101638.25;;;-1.33;79.27
22241;BME280;11289;52.524;13.694;2024-01-07T12:25:53;101626.97;;;-1.36;79.22
22241;BME280;11289;52.524;13.694;2024-01-07T12:28:19;101639.06;;;-1.32;79.76
22241;BME280;11289;52.524;13.694;2024-01-07T12:30:47;101635.16;;;-1.36;79.21
22241;BME280;11289;52.524;13.694;2024-01-07T12:33:19;101641.03;;;-1.40;79.67
22241;BME280;11289;52.524;13.694;2024-01-07T12:35:47;101637.75;;;-1.48;79.95
22241;BME280;11289;52.524;13.694;2024-01-07T12:38:13;101635.44;;;-1.45;80.76
22241;BME280;11289;52.524;13.694;2024-01-07T12:40:39;101636.25;;;-1.44;80.77
22241;BME280;11289;52.524;13.694;2024-01-07T12:43:05;101643.59;;;-1.45;80.50